Greenville, PA (16125)

4:20 AM EDT on April 02, 2015 (GMT -0400)
rt 846 and carlisle | | Change Station
CLOSE
Current Station
Personal Weather Station
Location: Transfer, PA
Elevation: 1237 ft
Nearby Weather Stations

Elev 1237 ft 41.37 °N, 80.46 °W | Updated 5 minutes ago

Clear
Clear
44.1 °F
Feels Like 41 °F
N
6.0
Wind Variable Wind from South
Gusts 6.0 mph

Today
High -- | Low -- °F
--% Chance of Precip.
Yesterday
High -- | Low -- °F
Precip. -- in
7:03 AM 7:47 PM
Waxing Gibbous, 96% visible
Pressure 30.04 in
Visibility 10.0 miles
Clouds Clear
Windchill 41 °F
Dew Point 30 °F
Humidity 57%
Rainfall 0.00 in
Snow Depth Not available.
UV 0.0 out of 12
Pollen 4.90 out of 12
Air Quality Not available.
Flu Activity Not available.
METAR KGKJ 020753Z AUTO VRB03KT 10SM CLR 07/M03 A3003 RMK AO2 SLP173 T00721033 TSNO

More Conditions Fewer Conditions

Pressure 30.04 in
Visibility 10.0 miles
Clouds Clear
Windchill 41 °F
Dew Point 30 °F
Humidity 57%
Rainfall 0.00 in
Snow Depth Not available.
UV 0.0 out of 12
Pollen 4.90 out of 12
Air Quality Not available.
Flu Activity Not available.
METAR KGKJ 020753Z AUTO VRB03KT 10SM CLR 07/M03 A3003 RMK AO2 SLP173 T00721033 TSNO

More Conditions Fewer Conditions

10-Day Weather Forecast

Almanac

Astronomy

Apr. 02, 2015 Rise Set
Actual Time
Civil Twilight
Nautical Twilight
Astronomical Twilight
Moon
Length of Visible Light
Length of Day
Tomorrow will be .
, % of the Moon is Illuminated

Today's Extremes

State Highs State Lows

Community

WunderPhotos

Upload Photos

1,810,207 photos uploaded!

WunderBlogs® & News

Nearby

Air Quality

  Air Quality AQ Index Pollutant
Not available.

Snow Depth

Station Depth Elevation

Earthquake Activity

City Distance Mag. Time & Date
Minimum magnitude displayed is 2.5.

Coastal Water Temperatures

Place Temperature

Stations

Nearby Weather Stations

Station Location Temp. Windchill Dew Point Humidity Wind Precip. Elev Updated Type